Terminal Aerodrome Forecast
Issued by NWS Sioux Falls, SD

Home | Current Version | Previous Version | Graphics & Text | Print | Product List | Glossary On
Versions: 1 2 3 4 5 6 7 8 9 10 11 12 13 14 15 16 17 18 19
000
FTUS43 KFSD 040529
TAFFSD
TAF
KFSD 040529Z 0406/0506 02008KT P6SM SCT080 BKN200
     FM041000 04010KT P6SM BKN070
     FM041400 05015G21KT P6SM SCT150
     FM041900 07011KT P6SM BKN150=

USA.gov is the U.S. government's official web portal to all federal, state and local government web resources and services.